sensor_id;sensor_type;location;lat;lon;timestamp;temperature;humidity
26272;DHT22;13997;48.902;12.472;2022-11-21T00:00:50;103.00;2227.20
26272;DHT22;13997;48.902;12.472;2022-11-21T00:03:16;103.00;2227.20
26272;DHT22;13997;48.902;12.472;2022-11-21T00:05:44;103.00;2227.20
26272;DHT22;13997;48.902;12.472;2022-11-21T00:08:12;103.00;2227.20
26272;DHT22;13997;48.902;12.472;2022-11-21T00:10:38;103.10;2227.20
26272;DHT22;13997;48.902;12.472;2022-11-21T00:13:05;103.00;2227.20
26272;DHT22;13997;48.902;12.472;2022-11-21T00:15:31;103.10;2227.20
26272;DHT22;13997;48.902;12.472;2022-11-21T00:17:57;103.00;2227.20
26272;DHT22;13997;48.902;12.472;2022-11-21T00:20:23;103.00;2227.20
26272;DHT22;13997;48.902;12.472;2022-11-21T00:22:48;103.10;2227.20
26272;DHT22;13997;48.902;12.472;2022-11-21T00:25:14;103.00;2227.20
26272;DHT22;13997;48.902;12.472;2022-11-21T00:27:40;103.00;2227.20
26272;DHT22;13997;48.902;12.472;2022-11-21T00:30:07;103.00;2227.20
26272;DHT22;13997;48.902;12.472;2022-11-21T00:32:33;103.10;2227.20
26272;DHT22;13997;48.902;12.472;2022-11-21T00:34:59;103.00;2227.20
26272;DHT22;13997;48.902;12.472;2022-11-21T00:37:24;103.00;2227.20
26272;DHT22;13997;48.902;12.472;2022-11-21T00:39:50;103.00;2227.20
26272;DHT22;13997;48.902;12.472;2022-11-21T00:42:15;103.00;2227.20
26272;DHT22;13997;48.902;12.472;2022-11-21T00:44:41;103.00;2227.20
26272;DHT22;13997;48.902;12.472;2022-11-21T00:47:07;103.10;2227.20
26272;DHT22;13997;48.902;12.472;2022-11-21T00:49:32;103.00;2227.20
26272;DHT22;13997;48.902;12.472;2022-11-21T00:51:58;103.00;2227.20
26272;DHT22;13997;48.902;12.472;2022-11-21T00:54:24;103.10;2227.20
26272;DHT22;13997;48.902;12.472;2022-11-21T00:56:49;103.10;2227.20
26272;DHT22;13997;48.902;12.472;2022-11-21T00:59:15;103.10;2227.20
26272;DHT22;13997;48.902;12.472;2022-11-21T01:01:40;103.10;2227.20
26272;DHT22;13997;48.902;12.472;2022-11-21T01:04:06;103.10;2227.20
26272;DHT22;13997;48.902;12.472;2022-11-21T01:06:32;103.10;2227.20
26272;DHT22;13997;48.902;12.472;2022-11-21T01:08:57;103.10;2227.20
26272;DHT22;13997;48.902;12.472;2022-11-21T01:11:23;103.10;2227.20
26272;DHT22;13997;48.902;12.472;2022-11-21T01:13:51;103.10;2227.20
26272;DHT22;13997;48.902;12.472;2022-11-21T01:16:19;103.10;2227.20
26272;DHT22;13997;48.902;12.472;2022-11-21T01:18:45;103.20;2227.20
26272;DHT22;13997;48.902;12.472;2022-11-21T01:21:22;103.20;2227.20
26272;DHT22;13997;48.902;12.472;2022-11-21T01:23:48;103.20;2227.20
26272;DHT22;13997;48.902;12.472;2022-11-21T01:26:17;103.20;2227.20
26272;DHT22;13997;48.902;12.472;2022-11-21T01:28:43;103.20;2227.20
26272;DHT22;13997;48.902;12.472;2022-11-21T01:31:20;103.20;2227.20
26272;DHT22;13997;48.902;12.472;2022-11-21T01:33:46;103.30;2227.20
26272;DHT22;13997;48.902;12.472;2022-11-21T01:36:17;103.30;2227.20
26272;DHT22;13997;48.902;12.472;2022-11-21T01:38:45;103.30;2227.20
26272;DHT22;13997;48.902;12.472;2022-11-21T01:41:13;103.30;2227.20
26272;DHT22;13997;48.902;12.472;2022-11-21T01:43:40;103.30;2227.20
26272;DHT22;13997;48.902;12.472;2022-11-21T01:52:10;103.30;2227.20
26272;DHT22;13997;48.902;12.472;2022-11-21T01:56:49;128.00;2252.80
26272;DHT22;13997;48.902;12.472;2022-11-21T01:59:25;128.00;2252.80
26272;DHT22;13997;48.902;12.472;2022-11-21T02:02:01;128.00;2252.80
26272;DHT22;13997;48.902;12.472;2022-11-21T02:04:30;128.00;2252.80
26272;DHT22;13997;48.902;12.472;2022-11-21T02:06:57;128.00;2252.80
26272;DHT22;13997;48.902;12.472;2022-11-21T02:09:24;128.00;2252.80
26272;DHT22;13997;48.902;12.472;2022-11-21T02:12:00;128.00;2252.80
26272;DHT22;13997;48.902;12.472;2022-11-21T02:14:29;128.00;2252.80
26272;DHT22;13997;48.902;12.472;2022-11-21T02:16:57;103.30;2227.20
26272;DHT22;13997;48.902;12.472;2022-11-21T02:19:46;128.00;2252.80
26272;DHT22;13997;48.902;12.472;2022-11-21T02:27:31;128.00;2252.80
26272;DHT22;13997;48.902;12.472;2022-11-21T02:29:57;128.00;2252.80
26272;DHT22;13997;48.902;12.472;2022-11-21T02:32:30;103.30;2227.20
26272;DHT22;13997;48.902;12.472;2022-11-21T02:34:56;103.30;2227.20
26272;DHT22;13997;48.902;12.472;2022-11-21T02:37:23;103.30;2227.20
26272;DHT22;13997;48.902;12.472;2022-11-21T02:39:48;103.30;2227.20
26272;DHT22;13997;48.902;12.472;2022-11-21T02:42:40;103.30;2227.20
26272;DHT22;13997;48.902;12.472;2022-11-21T02:45:27;103.20;2227.20
26272;DHT22;13997;48.902;12.472;2022-11-21T02:47:55;103.20;2227.20
26272;DHT22;13997;48.902;12.472;2022-11-21T02:50:34;103.20;2227.20
26272;DHT22;13997;48.902;12.472;2022-11-21T02:53:02;103.20;2227.20
26272;DHT22;13997;48.902;12.472;2022-11-21T02:55:27;103.20;2227.20
26272;DHT22;13997;48.902;12.472;2022-11-21T02:57:54;103.10;2227.20
26272;DHT22;13997;48.902;12.472;2022-11-21T03:00:20;103.10;2227.20
26272;DHT22;13997;48.902;12.472;2022-11-21T03:02:46;103.10;2227.20
26272;DHT22;13997;48.902;12.472;2022-11-21T03:05:14;103.00;2227.20
26272;DHT22;13997;48.902;12.472;2022-11-21T03:07:40;103.00;2227.20
26272;DHT22;13997;48.902;12.472;2022-11-21T03:10:06;103.00;2227.20
26272;DHT22;13997;48.902;12.472;2022-11-21T03:12:35;103.00;2227.20
26272;DHT22;13997;48.902;12.472;2022-11-21T03:15:01;103.00;2227.20
26272;DHT22;13997;48.902;12.472;2022-11-21T03:17:27;103.00;2227.20
26272;DHT22;13997;48.902;12.472;2022-11-21T03:19:52;103.00;2227.20
26272;DHT22;13997;48.902;12.472;2022-11-21T03:22:18;103.00;2227.20
26272;DHT22;13997;48.902;12.472;2022-11-21T03:24:44;103.10;2227.20
26272;DHT22;13997;48.902;12.472;2022-11-21T03:27:10;103.10;2227.20
26272;DHT22;13997;48.902;12.472;2022-11-21T03:29:36;103.10;2227.20
26272;DHT22;13997;48.902;12.472;2022-11-21T03:32:01;103.10;2227.20
26272;DHT22;13997;48.902;12.472;2022-11-21T03:34:27;103.10;2227.20
26272;DHT22;13997;48.902;12.472;2022-11-21T03:36:53;103.20;2227.20
26272;DHT22;13997;48.902;12.472;2022-11-21T03:39:18;103.20;2227.20
26272;DHT22;13997;48.902;12.472;2022-11-21T03:41:44;103.20;2227.20
26272;DHT22;13997;48.902;12.472;2022-11-21T03:44:11;103.20;2227.20
26272;DHT22;13997;48.902;12.472;2022-11-21T03:46:39;103.20;2227.20
26272;DHT22;13997;48.902;12.472;2022-11-21T03:49:06;103.20;2227.20
26272;DHT22;13997;48.902;12.472;2022-11-21T03:51:32;103.20;2227.20
26272;DHT22;13997;48.902;12.472;2022-11-21T03:53:58;103.20;2227.20
26272;DHT22;13997;48.902;12.472;2022-11-21T03:56:24;103.20;2227.20
26272;DHT22;13997;48.902;12.472;2022-11-21T03:58:49;103.20;2227.20
26272;DHT22;13997;48.902;12.472;2022-11-21T04:01:15;103.20;2227.20
26272;DHT22;13997;48.902;12.472;2022-11-21T04:03:42;103.20;2227.20
26272;DHT22;13997;48.902;12.472;2022-11-21T04:06:08;103.20;2227.20
26272;DHT22;13997;48.902;12.472;2022-11-21T04:08:34;103.20;2227.20
26272;DHT22;13997;48.902;12.472;2022-11-21T04:10:59;103.20;2227.20
26272;DHT22;13997;48.902;12.472;2022-11-21T04:13:25;103.20;2227.20
26272;DHT22;13997;48.902;12.472;2022-11-21T04:15:51;103.20;2227.20
26272;DHT22;13997;48.902;12.472;2022-11-21T04:18:17;103.20;2227.20
26272;DHT22;13997;48.902;12.472;2022-11-21T04:20:43;103.10;2227.20
26272;DHT22;13997;48.902;12.472;2022-11-21T04:23:08;103.10;2227.20
26272;DHT22;13997;48.902;12.472;2022-11-21T04:25:34;103.10;2227.20
26272;DHT22;13997;48.902;12.472;2022-11-21T04:28:01;103.10;2227.20
26272;DHT22;13997;48.902;12.472;2022-11-21T04:30:28;103.10;2227.20
26272;DHT22;13997;48.902;12.472;2022-11-21T04:32:54;103.10;2227.20
26272;DHT22;13997;48.902;12.472;2022-11-21T04:35:22;103.10;2227.20
26272;DHT22;13997;48.902;12.472;2022-11-21T04:37:48;103.10;2227.20
26272;DHT22;13997;48.902;12.472;2022-11-21T04:40:14;103.10;2227.20
26272;DHT22;13997;48.902;12.472;2022-11-21T04:42:41;103.10;2227.20
26272;DHT22;13997;48.902;12.472;2022-11-21T04:45:07;103.10;2227.20
26272;DHT22;13997;48.902;12.472;2022-11-21T04:47:37;103.10;2227.20
26272;DHT22;13997;48.902;12.472;2022-11-21T05:20:03;103.20;2227.20
26272;DHT22;13997;48.902;12.472;2022-11-21T05:22:29;103.20;2227.20
26272;DHT22;13997;48.902;12.472;2022-11-21T05:24:55;103.20;2227.20
26272;DHT22;13997;48.902;12.472;2022-11-21T05:27:23;103.20;2227.20
26272;DHT22;13997;48.902;12.472;2022-11-21T05:29:49;103.20;2227.20
26272;DHT22;13997;48.902;12.472;2022-11-21T05:32:15;103.20;2227.20
26272;DHT22;13997;48.902;12.472;2022-11-21T05:34:40;103.20;2227.20
26272;DHT22;13997;48.902;12.472;2022-11-21T05:37:06;103.20;2227.20
26272;DHT22;13997;48.902;12.472;2022-11-21T05:39:31;103.20;2227.20
26272;DHT22;13997;48.902;12.472;2022-11-21T05:41:57;103.20;2227.20
26272;DHT22;13997;48.902;12.472;2022-11-21T05:44:22;103.20;2227.20
26272;DHT22;13997;48.902;12.472;2022-11-21T05:46:48;103.20;2227.20
26272;DHT22;13997;48.902;12.472;2022-11-21T05:49:14;103.20;2227.20
26272;DHT22;13997;48.902;12.472;2022-11-21T05:51:39;103.20;2227.20
26272;DHT22;13997;48.902;12.472;2022-11-21T05:54:05;103.20;2227.20
26272;DHT22;13997;48.902;12.472;2022-11-21T05:56:31;103.20;2227.20
26272;DHT22;13997;48.902;12.472;2022-11-21T06:46:28;103.00;2227.20
26272;DHT22;13997;48.902;12.472;2022-11-21T06:48:54;103.00;2227.20
26272;DHT22;13997;48.902;12.472;2022-11-21T07:48:16;103.30;2227.20
26272;DHT22;13997;48.902;12.472;2022-11-21T09:30:36;154.40;2252.80
26272;DHT22;13997;48.902;12.472;2022-11-21T09:33:03;154.40;2252.80
26272;DHT22;13997;48.902;12.472;2022-11-21T09:35:29;154.50;2252.80
26272;DHT22;13997;48.902;12.472;2022-11-21T09:37:55;179.30;2252.80
26272;DHT22;13997;48.902;12.472;2022-11-21T09:40:21;179.40;2252.80
26272;DHT22;13997;48.902;12.472;2022-11-21T09:43:25;179.60;2252.80
26272;DHT22;13997;48.902;12.472;2022-11-21T09:46:10;179.60;2252.80
26272;DHT22;13997;48.902;12.472;2022-11-21T09:48:55;179.70;2252.80
26272;DHT22;13997;48.902;12.472;2022-11-21T09:51:23;179.80;2252.80
26272;DHT22;13997;48.902;12.472;2022-11-21T09:53:55;179.70;2252.80
26272;DHT22;13997;48.902;12.472;2022-11-21T09:56:23;179.60;2252.80
26272;DHT22;13997;48.902;12.472;2022-11-21T10:01:45;179.40;2252.80
26272;DHT22;13997;48.902;12.472;2022-11-21T10:04:10;179.30;2252.80
26272;DHT22;13997;48.902;12.472;2022-11-21T10:06:57;179.30;2252.80
26272;DHT22;13997;48.902;12.472;2022-11-21T10:09:50;179.30;2252.80
26272;DHT22;13997;48.902;12.472;2022-11-21T10:15:21;179.40;2252.80
26272;DHT22;13997;48.902;12.472;2022-11-21T10:26:21;179.60;2252.80
26272;DHT22;13997;48.902;12.472;2022-11-21T10:28:53;179.80;2252.80
26272;DHT22;13997;48.902;12.472;2022-11-21T10:31:20;179.90;2252.80
26272;DHT22;13997;48.902;12.472;2022-11-21T10:33:48;180.00;2252.80
26272;DHT22;13997;48.902;12.472;2022-11-21T10:36:29;180.10;2252.80
26272;DHT22;13997;48.902;12.472;2022-11-21T10:39:12;180.10;2252.80
26272;DHT22;13997;48.902;12.472;2022-11-21T10:41:51;180.00;2252.80
26272;DHT22;13997;48.902;12.472;2022-11-21T10:47:13;179.80;2252.80
26272;DHT22;13997;48.902;12.472;2022-11-21T10:49:39;179.70;2252.80
26272;DHT22;13997;48.902;12.472;2022-11-21T11:46:25;179.80;2252.80
26272;DHT22;13997;48.902;12.472;2022-11-21T14:44:34;179.90;2252.80
26272;DHT22;13997;48.902;12.472;2022-11-21T14:46:37;179.90;2252.80
26272;DHT22;13997;48.902;12.472;2022-11-21T14:54:20;179.90;2252.80
26272;DHT22;13997;48.902;12.472;2022-11-21T14:56:47;179.90;2252.80
26272;DHT22;13997;48.902;12.472;2022-11-21T14:59:23;179.90;2252.80
26272;DHT22;13997;48.902;12.472;2022-11-21T15:01:55;179.80;2252.80
26272;DHT22;13997;48.902;12.472;2022-11-21T15:04:27;179.80;2252.80
26272;DHT22;13997;48.902;12.472;2022-11-21T15:06:53;179.70;2252.80
26272;DHT22;13997;48.902;12.472;2022-11-21T15:09:18;179.70;2252.80
26272;DHT22;13997;48.902;12.472;2022-11-21T15:14:33;179.60;2252.80
26272;DHT22;13997;48.902;12.472;2022-11-21T15:17:02;179.60;2252.80
26272;DHT22;13997;48.902;12.472;2022-11-21T15:19:29;179.50;2252.80
26272;DHT22;13997;48.902;12.472;2022-11-21T15:21:58;179.40;2252.80
26272;DHT22;13997;48.902;12.472;2022-11-21T15:24:41;179.30;2252.80
26272;DHT22;13997;48.902;12.472;2022-11-21T15:35:53;154.40;2252.80
26272;DHT22;13997;48.902;12.472;2022-11-21T15:41:07;154.20;2252.80
26272;DHT22;13997;48.902;12.472;2022-11-21T15:43:47;154.10;2252.80
26272;DHT22;13997;48.902;12.472;2022-11-21T15:48:54;153.70;2252.80
26272;DHT22;13997;48.902;12.472;2022-11-21T15:51:23;153.70;2252.80
26272;DHT22;13997;48.902;12.472;2022-11-21T15:53:49;153.60;2252.80
26272;DHT22;13997;48.902;12.472;2022-11-21T15:56:16;153.60;2252.80
26272;DHT22;13997;48.902;12.472;2022-11-21T15:58:44;153.60;2252.80
26272;DHT22;13997;48.902;12.472;2022-11-21T16:01:18;128.90;2252.80
26272;DHT22;13997;48.902;12.472;2022-11-21T16:03:44;128.80;2252.80
26272;DHT22;13997;48.902;12.472;2022-11-21T16:06:10;128.70;2252.80
26272;DHT22;13997;48.902;12.472;2022-11-21T16:08:37;128.70;2252.80
26272;DHT22;13997;48.902;12.472;2022-11-21T16:11:02;128.60;2252.80
26272;DHT22;13997;48.902;12.472;2022-11-21T16:28:15;128.70;2252.80
26272;DHT22;13997;48.902;12.472;2022-11-21T16:30:41;128.40;2252.80
26272;DHT22;13997;48.902;12.472;2022-11-21T16:33:07;128.30;2252.80
26272;DHT22;13997;48.902;12.472;2022-11-21T16:35:33;128.30;2252.80
26272;DHT22;13997;48.902;12.472;2022-11-21T16:37:58;128.20;2252.80
26272;DHT22;13997;48.902;12.472;2022-11-21T16:40:24;128.20;2252.80
26272;DHT22;13997;48.902;12.472;2022-11-21T16:42:50;128.20;2252.80
26272;DHT22;13997;48.902;12.472;2022-11-21T16:45:15;128.20;2252.80
26272;DHT22;13997;48.902;12.472;2022-11-21T17:14:19;102.90;2227.20
26272;DHT22;13997;48.902;12.472;2022-11-21T17:16:44;102.90;2227.20
26272;DHT22;13997;48.902;12.472;2022-11-21T17:19:10;102.90;2227.20
26272;DHT22;13997;48.902;12.472;2022-11-21T17:21:36;102.80;2227.20
26272;DHT22;13997;48.902;12.472;2022-11-21T17:24:02;102.80;2227.20
26272;DHT22;13997;48.902;12.472;2022-11-21T17:26:28;102.80;2227.20
26272;DHT22;13997;48.902;12.472;2022-11-21T17:28:59;102.80;2227.20
26272;DHT22;13997;48.902;12.472;2022-11-21T17:31:26;102.80;2227.20
26272;DHT22;13997;48.902;12.472;2022-11-21T17:33:52;102.80;2227.20
26272;DHT22;13997;48.902;12.472;2022-11-21T17:36:21;102.80;2227.20
26272;DHT22;13997;48.902;12.472;2022-11-21T17:38:48;102.80;2227.20
26272;DHT22;13997;48.902;12.472;2022-11-21T17:41:16;102.70;2227.20
26272;DHT22;13997;48.902;12.472;2022-11-21T17:43:42;102.70;2227.20
26272;DHT22;13997;48.902;12.472;2022-11-21T17:46:13;102.70;2227.20
26272;DHT22;13997;48.902;12.472;2022-11-21T17:48:39;102.70;2227.20
26272;DHT22;13997;48.902;12.472;2022-11-21T17:51:13;102.70;2227.20
26272;DHT22;13997;48.902;12.472;2022-11-21T17:53:41;102.70;2227.20
26272;DHT22;13997;48.902;12.472;2022-11-21T17:56:11;102.70;2227.20
26272;DHT22;13997;48.902;12.472;2022-11-21T17:58:38;102.60;2227.20
26272;DHT22;13997;48.902;12.472;2022-11-21T18:01:05;102.60;2227.20
26272;DHT22;13997;48.902;12.472;2022-11-21T18:03:31;102.60;2227.20
26272;DHT22;13997;48.902;12.472;2022-11-21T18:06:09;102.50;2227.20
26272;DHT22;13997;48.902;12.472;2022-11-21T18:08:37;102.40;2227.20
26272;DHT22;13997;48.902;12.472;2022-11-21T18:11:04;77.70;2227.20
26272;DHT22;13997;48.902;12.472;2022-11-21T18:13:32;77.70;2227.20
26272;DHT22;13997;48.902;12.472;2022-11-21T18:16:03;77.60;2227.20
26272;DHT22;13997;48.902;12.472;2022-11-21T18:18:30;77.50;2227.20
26272;DHT22;13997;48.902;12.472;2022-11-21T18:23:28;77.40;2227.20
26272;DHT22;13997;48.902;12.472;2022-11-21T18:25:54;77.40;2227.20
26272;DHT22;13997;48.902;12.472;2022-11-21T18:28:20;77.40;2227.20
26272;DHT22;13997;48.902;12.472;2022-11-21T18:30:45;77.40;2227.20
26272;DHT22;13997;48.902;12.472;2022-11-21T18:33:11;77.40;2227.20
26272;DHT22;13997;48.902;12.472;2022-11-21T18:35:36;77.40;2227.20
26272;DHT22;13997;48.902;12.472;2022-11-21T18:38:02;77.40;2227.20
26272;DHT22;13997;48.902;12.472;2022-11-21T18:40:28;77.40;2227.20
26272;DHT22;13997;48.902;12.472;2022-11-21T18:42:53;77.30;2227.20
26272;DHT22;13997;48.902;12.472;2022-11-21T18:45:19;77.30;2227.20
26272;DHT22;13997;48.902;12.472;2022-11-21T18:47:45;77.30;2227.20
26272;DHT22;13997;48.902;12.472;2022-11-21T18:50:10;77.30;2227.20
26272;DHT22;13997;48.902;12.472;2022-11-21T18:52:36;77.30;2227.20
26272;DHT22;13997;48.902;12.472;2022-11-21T18:55:02;77.30;2227.20
26272;DHT22;13997;48.902;12.472;2022-11-21T18:57:29;77.30;2227.20
26272;DHT22;13997;48.902;12.472;2022-11-21T18:59:55;77.30;2227.20
26272;DHT22;13997;48.902;12.472;2022-11-21T19:02:20;77.30;2227.20
26272;DHT22;13997;48.902;12.472;2022-11-21T19:04:46;77.20;2227.20
26272;DHT22;13997;48.902;12.472;2022-11-21T19:07:12;77.20;2227.20
26272;DHT22;13997;48.902;12.472;2022-11-21T19:09:37;77.20;2227.20
26272;DHT22;13997;48.902;12.472;2022-11-21T19:12:03;77.20;2227.20
26272;DHT22;13997;48.902;12.472;2022-11-21T19:14:29;77.20;2227.20
26272;DHT22;13997;48.902;12.472;2022-11-21T19:16:54;77.10;2227.20
26272;DHT22;13997;48.902;12.472;2022-11-21T19:19:20;77.10;2227.20
26272;DHT22;13997;48.902;12.472;2022-11-21T19:21:46;77.10;2227.20
26272;DHT22;13997;48.902;12.472;2022-11-21T19:24:13;77.10;2227.20
26272;DHT22;13997;48.902;12.472;2022-11-21T19:26:39;77.10;2227.20
26272;DHT22;13997;48.902;12.472;2022-11-21T19:29:05;77.10;2227.20
26272;DHT22;13997;48.902;12.472;2022-11-21T19:31:30;77.10;2227.20
26272;DHT22;13997;48.902;12.472;2022-11-21T19:33:57;77.10;2227.20
26272;DHT22;13997;48.902;12.472;2022-11-21T20:30:42;76.90;2227.20
